createdAt,value
2019-04-29T00:02:27.546Z,5.70
2019-04-29T00:04:54.816Z,1.77
2019-04-29T00:07:22.062Z,2.80
2019-04-29T00:09:49.284Z,2.30
2019-04-29T00:12:17.151Z,5.93
2019-04-29T00:14:49.290Z,2.20
2019-04-29T00:17:23.311Z,2.27
2019-04-29T00:20:10.063Z,2.17
2019-04-29T00:22:37.299Z,2.67
2019-04-29T00:25:04.840Z,2.43
2019-04-29T00:27:32.094Z,2.37
2019-04-29T00:29:59.307Z,8.30
2019-04-29T00:32:26.559Z,2.67
2019-04-29T00:34:53.776Z,2.07
2019-04-29T00:37:48.445Z,2.33
2019-04-29T00:40:41.575Z,3.37
2019-04-29T00:43:34.235Z,2.60
2019-04-29T00:46:01.475Z,4.83
2019-04-29T00:48:28.701Z,3.20
2019-04-29T00:50:55.975Z,2.73
2019-04-29T00:53:23.203Z,3.43
2019-04-29T00:55:50.591Z,3.53
2019-04-29T00:58:17.836Z,6.30
2019-04-29T01:00:45.095Z,4.03
2019-04-29T01:03:12.326Z,4.60
2019-04-29T01:05:39.543Z,3.73
2019-04-29T01:08:07.019Z,3.70
2019-04-29T01:10:34.350Z,9.07
2019-04-29T01:13:01.588Z,3.13
2019-04-29T01:15:28.991Z,2.63
2019-04-29T01:17:56.210Z,4.07
2019-04-29T01:20:23.455Z,4.43
2019-04-29T01:22:50.704Z,6.47
2019-04-29T01:25:17.943Z,4.90
2019-04-29T01:27:55.156Z,4.90
2019-04-29T01:31:21.814Z,3.77
2019-04-29T01:33:51.519Z,11.47
2019-04-29T01:36:36.395Z,3.43
2019-04-29T01:39:07.236Z,8.53
2019-04-29T01:42:03.157Z,4.00
2019-04-29T01:44:32.499Z,4.53
2019-04-29T01:47:00.836Z,8.93
2019-04-29T01:49:28.500Z,3.20
2019-04-29T01:51:56.200Z,5.17
2019-04-29T01:54:23.892Z,5.33
2019-04-29T01:56:51.606Z,4.00
2019-04-29T01:59:19.419Z,5.20
2019-04-29T02:01:46.747Z,2.53
2019-04-29T02:04:14.017Z,2.20
2019-04-29T02:06:41.359Z,3.13
2019-04-29T02:09:12.656Z,2.13
2019-04-29T02:11:39.898Z,3.70
2019-04-29T02:14:07.248Z,5.37
2019-04-29T02:16:34.555Z,5.07
2019-04-29T02:19:01.798Z,2.50
2019-04-29T02:21:29.019Z,2.73
2019-04-29T02:24:15.893Z,5.70
2019-04-29T02:26:43.219Z,2.43
2019-04-29T02:29:10.497Z,2.40
2019-04-29T02:31:37.736Z,3.10
2019-04-29T02:34:05.363Z,2.50
2019-04-29T02:36:32.735Z,2.67
2019-04-29T02:39:34.573Z,2.50
2019-04-29T02:42:20.518Z,2.13
2019-04-29T02:44:48.468Z,2.20
2019-04-29T02:47:15.726Z,2.20
2019-04-29T02:49:42.960Z,2.47
2019-04-29T02:52:10.265Z,2.57
2019-04-29T02:54:37.501Z,2.60
2019-04-29T02:57:11.543Z,4.53
2019-04-29T02:59:42.628Z,3.07
2019-04-29T03:02:25.850Z,2.50
2019-04-29T03:05:14.420Z,2.30
2019-04-29T03:07:41.817Z,2.33
2019-04-29T03:10:09.161Z,1.93
2019-04-29T03:12:36.462Z,2.10
2019-04-29T03:15:04.128Z,1.77
2019-04-29T03:17:31.348Z,2.13
2019-04-29T03:20:23.209Z,1.77
2019-04-29T03:22:50.489Z,4.20
2019-04-29T03:25:17.736Z,3.07
2019-04-29T03:27:44.954Z,2.50
2019-04-29T03:30:12.388Z,3.17
2019-04-29T03:32:39.637Z,2.20
2019-04-29T03:35:07.595Z,2.20
2019-04-29T03:37:34.888Z,3.83
2019-04-29T03:40:02.336Z,2.67
2019-04-29T03:42:29.556Z,2.40
2019-04-29T03:44:56.894Z,2.30
2019-04-29T03:47:24.130Z,2.20
2019-04-29T03:49:51.376Z,2.27
2019-04-29T03:52:18.633Z,2.87
2019-04-29T03:54:45.948Z,3.20
2019-04-29T03:57:19.749Z,3.77
2019-04-29T03:59:47.045Z,8.13
2019-04-29T04:02:25.534Z,3.43
2019-04-29T04:05:09.732Z,3.40
2019-04-29T04:07:56.610Z,4.73
2019-04-29T04:10:24.060Z,4.20
2019-04-29T04:12:51.295Z,4.47
2019-04-29T04:15:18.586Z,6.60
2019-04-29T04:17:55.653Z,3.90
2019-04-29T04:20:23.628Z,3.90
2019-04-29T04:22:50.950Z,2.73
2019-04-29T04:25:18.386Z,2.90
2019-04-29T04:27:45.819Z,3.07
2019-04-29T04:30:14.105Z,2.23
2019-04-29T04:32:41.512Z,3.43
2019-04-29T04:35:08.864Z,3.17
2019-04-29T04:37:36.191Z,5.57
2019-04-29T04:40:03.996Z,2.17
2019-04-29T04:42:31.263Z,2.10
2019-04-29T04:44:58.597Z,2.90
2019-04-29T04:47:25.916Z,2.63
2019-04-29T04:49:53.264Z,3.23
2019-04-29T04:52:20.504Z,3.50
2019-04-29T04:54:49.901Z,3.37
2019-04-29T04:57:17.242Z,3.90
2019-04-29T04:59:44.659Z,3.83
2019-04-29T05:02:11.909Z,8.30
2019-04-29T05:04:39.152Z,3.40
2019-04-29T05:07:06.372Z,4.33
2019-04-29T05:09:35.476Z,3.83
2019-04-29T05:12:02.713Z,4.27
2019-04-29T05:14:30.018Z,3.70
2019-04-29T05:16:58.877Z,3.70
2019-04-29T05:19:26.103Z,3.87
2019-04-29T05:21:53.343Z,3.70
2019-04-29T05:24:20.595Z,3.60
2019-04-29T05:26:47.822Z,3.90
2019-04-29T05:29:15.088Z,4.07
2019-04-29T05:31:42.307Z,4.93
2019-04-29T05:34:09.780Z,10.83
2019-04-29T05:36:56.519Z,5.40
2019-04-29T05:39:27.110Z,6.27
2019-04-29T05:41:54.512Z,5.67
2019-04-29T05:44:33.472Z,4.93
2019-04-29T05:47:04.645Z,4.27
2019-04-29T05:49:51.504Z,4.13
2019-04-29T05:52:39.506Z,3.63
2019-04-29T05:55:09.509Z,4.27
2019-04-29T05:57:36.535Z,4.63
2019-04-29T06:00:06.255Z,4.87
2019-04-29T06:02:38.294Z,5.00
2019-04-29T06:05:03.321Z,7.60
2019-04-29T06:07:30.571Z,5.23
2019-04-29T06:09:57.821Z,4.00
2019-04-29T06:12:25.060Z,4.43
2019-04-29T06:14:52.296Z,6.33
2019-04-29T06:17:19.567Z,3.33
2019-04-29T06:19:46.805Z,3.83
2019-04-29T06:22:14.067Z,4.87
2019-04-29T06:24:42.197Z,3.33
2019-04-29T06:27:09.631Z,7.90
2019-04-29T06:29:36.885Z,3.27
2019-04-29T06:32:04.100Z,4.87
2019-04-29T06:34:31.363Z,2.93
2019-04-29T06:36:58.599Z,7.73
2019-04-29T06:39:25.820Z,3.50
2019-04-29T06:41:53.059Z,4.97
2019-04-29T06:44:20.295Z,5.00
2019-04-29T06:46:50.131Z,3.77
2019-04-29T06:49:16.656Z,4.00
2019-04-29T06:51:43.900Z,4.30
2019-04-29T06:54:11.133Z,5.57
2019-04-29T06:56:39.025Z,3.90
2019-04-29T06:59:07.589Z,6.33
2019-04-29T07:01:37.530Z,5.17
2019-04-29T07:04:04.780Z,5.63
2019-04-29T07:06:32.019Z,4.73
2019-04-29T07:08:59.239Z,5.13
2019-04-29T07:11:26.495Z,4.63
2019-04-29T07:13:57.593Z,5.87
2019-04-29T07:16:26.817Z,5.27
2019-04-29T07:18:53.835Z,4.40
2019-04-29T07:21:21.641Z,8.20
2019-04-29T07:23:48.913Z,6.20
2019-04-29T07:26:16.165Z,6.53
2019-04-29T07:28:43.434Z,5.27
2019-04-29T07:31:10.699Z,4.30
2019-04-29T07:33:38.018Z,4.67
2019-04-29T07:36:11.361Z,5.27
2019-04-29T07:38:41.097Z,4.43
2019-04-29T07:41:03.628Z,5.30
2019-04-29T07:43:30.883Z,7.43
2019-04-29T07:46:05.541Z,6.30
2019-04-29T07:48:36.860Z,7.30
2019-04-29T07:51:04.121Z,5.30
2019-04-29T07:53:40.187Z,6.13
2019-04-29T07:56:01.655Z,6.23
2019-04-29T07:58:29.580Z,4.57
2019-04-29T08:00:56.825Z,5.00
2019-04-29T08:03:24.039Z,6.63
2019-04-29T08:05:51.599Z,9.47
2019-04-29T08:08:21.288Z,5.93
2019-04-29T08:10:56.144Z,4.87
2019-04-29T08:13:19.907Z,5.50
2019-04-29T08:15:47.168Z,5.17
2019-04-29T08:18:16.310Z,7.60
2019-04-29T08:20:43.576Z,6.10
2019-04-29T08:23:10.809Z,6.60
2019-04-29T08:25:38.071Z,6.77
2019-04-29T08:28:05.387Z,11.00
2019-04-29T08:30:32.696Z,5.63
2019-04-29T08:33:00.044Z,7.60
2019-04-29T08:35:27.303Z,6.07
2019-04-29T08:37:54.540Z,9.37
2019-04-29T08:40:21.787Z,8.13
2019-04-29T08:42:58.023Z,6.17
2019-04-29T08:45:38.985Z,5.30
2019-04-29T08:48:07.620Z,6.43
2019-04-29T08:50:34.938Z,5.03
2019-04-29T08:53:02.299Z,4.50
2019-04-29T08:55:30.981Z,5.50
2019-04-29T08:58:00.749Z,6.17
2019-04-29T09:00:28.116Z,7.03
2019-04-29T09:02:55.367Z,8.50
2019-04-29T09:05:22.707Z,7.23
2019-04-29T09:07:57.130Z,7.37
2019-04-29T09:10:21.943Z,4.50
2019-04-29T09:12:49.226Z,6.07
2019-04-29T09:15:16.575Z,7.43
2019-04-29T09:17:44.669Z,4.00
2019-04-29T09:20:12.540Z,4.00
2019-04-29T09:22:44.999Z,3.60
2019-04-29T09:25:37.787Z,4.60
2019-04-29T09:28:08.709Z,7.87
2019-04-29T09:30:38.633Z,4.67
2019-04-29T09:33:08.727Z,7.33
2019-04-29T09:35:38.842Z,6.00
2019-04-29T09:38:03.612Z,5.13
2019-04-29T09:40:34.548Z,4.33
2019-04-29T09:43:27.081Z,5.80
2019-04-29T09:46:04.213Z,4.60
2019-04-29T09:48:31.480Z,4.83
2019-04-29T09:50:58.741Z,3.93
2019-04-29T09:53:25.995Z,6.10
2019-04-29T09:55:53.248Z,4.80
2019-04-29T09:58:20.509Z,7.83
2019-04-29T10:01:13.842Z,6.30
2019-04-29T10:04:03.277Z,7.90
2019-04-29T10:06:32.737Z,9.73
2019-04-29T10:09:00.116Z,4.67
2019-04-29T10:11:27.349Z,7.37
2019-04-29T10:13:54.613Z,8.00
2019-04-29T10:16:31.717Z,6.30
2019-04-29T10:19:06.983Z,6.10
2019-04-29T10:21:34.448Z,4.73
2019-04-29T10:24:21.211Z,7.00
2019-04-29T10:26:48.461Z,12.30
2019-04-29T10:29:18.632Z,8.93
2019-04-29T10:31:47.163Z,5.10
2019-04-29T10:34:15.057Z,5.03
2019-04-29T10:36:42.391Z,8.40
2019-04-29T10:39:38.417Z,4.08
2019-04-29T10:42:05.859Z,7.37
2019-04-29T10:44:52.627Z,10.00
2019-04-29T10:47:28.816Z,10.72
2019-04-29T10:49:59.385Z,4.43
2019-04-29T10:52:26.622Z,4.70
2019-04-29T10:54:55.292Z,5.10
2019-04-29T10:57:23.489Z,5.27
2019-04-29T10:59:55.107Z,6.57
2019-04-29T11:02:32.747Z,3.40
2019-04-29T11:05:13.492Z,2.07
2019-04-29T11:07:41.376Z,2.40
2019-04-29T11:10:25.004Z,3.47
2019-04-29T11:12:44.725Z,1.90
2019-04-29T11:15:13.918Z,3.90
2019-04-29T11:17:44.630Z,4.37
2019-04-29T11:20:15.502Z,1.93
2019-04-29T11:22:45.124Z,3.35
2019-04-29T11:25:34.429Z,2.33
2019-04-29T11:28:01.783Z,1.30
2019-04-29T11:30:30.253Z,3.40
2019-04-29T11:33:06.225Z,7.83
2019-04-29T11:35:41.175Z,3.87
2019-04-29T11:38:10.375Z,2.80
2019-04-29T11:40:43.455Z,5.13
2019-04-29T11:43:10.949Z,2.90
2019-04-29T11:45:40.043Z,3.50
2019-04-29T11:48:07.433Z,4.13
2019-04-29T11:50:45.236Z,2.87
2019-04-29T11:53:12.771Z,4.22
2019-04-29T11:55:43.432Z,1.75
2019-04-29T11:58:17.180Z,3.70
2019-04-29T12:01:16.296Z,2.45
2019-04-29T12:03:44.214Z,4.95
2019-04-29T12:06:16.531Z,6.60
2019-04-29T12:08:41.786Z,4.42
2019-04-29T12:11:09.232Z,2.90
2019-04-29T12:14:03.102Z,2.90
2019-04-29T12:16:34.217Z,2.98
2019-04-29T12:19:10.663Z,2.37
2019-04-29T12:21:38.757Z,1.98
2019-04-29T12:24:07.643Z,1.98
2019-04-29T12:26:41.018Z,3.83
2019-04-29T12:29:04.202Z,3.35
2019-04-29T12:31:48.836Z,3.37
2019-04-29T12:34:26.881Z,6.15
2019-04-29T12:36:56.414Z,2.85
2019-04-29T12:39:51.639Z,4.83
2019-04-29T12:42:56.214Z,1.52
2019-04-29T12:45:27.467Z,3.52
2019-04-29T12:47:54.871Z,2.85
2019-04-29T12:50:23.133Z,2.72
2019-04-29T12:52:50.615Z,3.90
2019-04-29T12:55:39.561Z,1.12
2019-04-29T12:57:51.672Z,4.55
2019-04-29T13:00:23.649Z,2.42
2019-04-29T13:03:09.159Z,3.72
2019-04-29T13:05:58.507Z,3.08
2019-04-29T13:08:29.149Z,1.27
2019-04-29T13:11:01.747Z,1.65
2019-04-29T13:13:29.053Z,38.10
2019-04-29T13:16:20.011Z,25.12
2019-04-29T13:18:53.432Z,3.10
2019-04-29T13:21:17.952Z,3.92
2019-04-29T13:23:55.489Z,5.35
2019-04-29T13:26:27.281Z,2.00
2019-04-29T13:28:58.884Z,2.33
2019-04-29T13:31:12.816Z,4.83
2019-04-29T13:33:40.070Z,2.83
2019-04-29T13:36:07.626Z,1.20
2019-04-29T13:38:34.844Z,1.67
2019-04-29T13:41:12.759Z,3.98
2019-04-29T13:43:35.421Z,2.00
2019-04-29T13:46:10.800Z,1.22
2019-04-29T13:49:12.983Z,2.33
2019-04-29T13:51:36.762Z,1.10
2019-04-29T13:54:10.711Z,2.37
2019-04-29T13:56:54.739Z,27.95
2019-04-29T13:59:10.831Z,4.37
2019-04-29T14:01:59.852Z,1.90
2019-04-29T14:04:29.887Z,2.63
2019-04-29T14:06:57.806Z,0.93
2019-04-29T14:09:25.308Z,2.57
2019-04-29T14:12:01.329Z,5.00
2019-04-29T14:14:22.743Z,4.13
2019-04-29T14:16:50.393Z,2.53
2019-04-29T14:19:20.610Z,2.47
2019-04-29T14:21:46.811Z,4.47
2019-04-29T14:24:14.047Z,1.90
2019-04-29T14:26:42.105Z,2.83
2019-04-29T14:29:10.436Z,2.57
2019-04-29T14:31:37.652Z,1.90
2019-04-29T14:34:17.435Z,4.63
2019-04-29T14:36:43.213Z,5.57
2019-04-29T14:39:12.952Z,3.47
2019-04-29T14:41:43.310Z,2.03
2019-04-29T14:44:42.362Z,2.37
2019-04-29T14:47:28.321Z,3.20
2019-04-29T14:49:58.051Z,10.23
2019-04-29T14:52:25.281Z,3.50
2019-04-29T14:54:52.534Z,3.63
2019-04-29T14:57:19.769Z,2.13
2019-04-29T14:59:47.232Z,5.07
2019-04-29T15:02:19.133Z,5.50
2019-04-29T15:04:47.484Z,8.30
2019-04-29T15:07:14.918Z,3.57
2019-04-29T15:09:55.642Z,2.67
2019-04-29T15:12:51.896Z,2.47
2019-04-29T15:15:24.111Z,5.50
2019-04-29T15:18:38.690Z,5.80
2019-04-29T15:21:01.751Z,4.23
2019-04-29T15:23:32.781Z,7.03
2019-04-29T15:25:59.295Z,5.57
2019-04-29T15:28:26.643Z,4.00
2019-04-29T15:30:53.893Z,4.53
2019-04-29T15:33:21.199Z,5.97
2019-04-29T15:35:48.427Z,4.77
2019-04-29T15:38:15.649Z,5.63
2019-04-29T15:40:43.384Z,4.70
2019-04-29T15:43:10.903Z,4.00
2019-04-29T15:45:40.507Z,4.37
2019-04-29T15:48:07.528Z,4.07
2019-04-29T15:50:37.130Z,5.50
2019-04-29T15:53:04.434Z,7.53
2019-04-29T15:55:34.873Z,6.20
2019-04-29T15:58:01.362Z,5.30
2019-04-29T16:00:36.509Z,4.97
2019-04-29T16:02:58.058Z,10.47
2019-04-29T16:05:34.852Z,6.63
2019-04-29T16:08:29.540Z,7.80
2019-04-29T16:11:18.969Z,8.73
2019-04-29T16:13:48.292Z,6.33
2019-04-29T16:16:15.384Z,5.93
2019-04-29T16:18:42.750Z,6.83
2019-04-29T16:21:10.011Z,8.80
2019-04-29T16:23:38.616Z,7.07
2019-04-29T16:26:06.355Z,6.50
2019-04-29T16:28:39.452Z,7.33
2019-04-29T16:33:32.186Z,9.73
2019-04-29T16:36:04.837Z,6.70
2019-04-29T16:38:28.578Z,9.53
2019-04-29T16:41:04.168Z,7.73
2019-04-29T16:43:36.130Z,7.67
2019-04-29T16:46:12.995Z,8.03
2019-04-29T16:48:40.472Z,7.97
2019-04-29T16:51:14.163Z,13.20
2019-04-29T16:53:37.281Z,7.73
2019-04-29T16:56:04.763Z,7.60
2019-04-29T16:58:32.041Z,9.60
2019-04-29T17:00:59.481Z,8.60
2019-04-29T17:03:26.804Z,10.57
2019-04-29T17:05:54.124Z,8.30
2019-04-29T17:08:24.063Z,11.67
2019-04-29T17:11:11.913Z,9.83
2019-04-29T17:13:41.451Z,9.47
2019-04-29T17:16:13.342Z,11.60
2019-04-29T17:18:40.655Z,8.53
2019-04-29T17:21:07.965Z,8.67
2019-04-29T17:23:36.388Z,8.87
2019-04-29T17:26:03.734Z,9.43
2019-04-29T17:28:43.649Z,7.53
2019-04-29T17:31:30.410Z,8.50
2019-04-29T17:34:11.935Z,6.00
2019-04-29T17:35:17.652Z,7.73
2019-04-29T17:36:39.612Z,8.23
2019-04-29T17:39:07.303Z,9.50
2019-04-29T17:41:34.559Z,5.97
2019-04-29T17:44:21.440Z,6.87
2019-04-29T17:46:58.727Z,7.37
2019-04-29T17:49:45.479Z,8.17
2019-04-29T17:52:20.019Z,7.57
2019-04-29T17:54:49.649Z,7.20
2019-04-29T17:57:31.127Z,7.97
2019-04-29T18:00:08.570Z,8.30
2019-04-29T18:02:57.293Z,7.03
2019-04-29T18:05:52.903Z,7.20
2019-04-29T18:08:17.944Z,7.97
2019-04-29T18:10:49.925Z,7.10
2019-04-29T18:13:23.542Z,14.57
2019-04-29T18:15:58.673Z,14.40
2019-04-29T18:18:21.500Z,17.83
2019-04-29T18:21:09.171Z,12.43
2019-04-29T18:23:51.396Z,11.37
2019-04-29T18:26:25.717Z,13.00
2019-04-29T18:28:56.888Z,15.17
2019-04-29T18:31:22.577Z,12.77
2019-04-29T18:33:49.900Z,12.27
2019-04-29T18:36:23.571Z,12.53
2019-04-29T18:38:49.912Z,9.37
2019-04-29T18:41:24.295Z,9.87
2019-04-29T18:43:45.206Z,9.00
2019-04-29T18:46:14.444Z,8.17
2019-04-29T18:48:41.711Z,8.03
2019-04-29T18:51:08.956Z,8.83
2019-04-29T18:53:36.199Z,8.13
2019-04-29T18:56:05.125Z,8.17
2019-04-29T18:58:32.631Z,7.27
2019-04-29T19:00:59.868Z,8.10
2019-04-29T19:03:39.403Z,9.73
2019-04-29T19:06:10.203Z,11.57
2019-04-29T19:08:36.151Z,12.87
2019-04-29T19:11:05.053Z,13.40
2019-04-29T19:13:32.794Z,10.37
2019-04-29T19:16:09.641Z,12.07
2019-04-29T19:18:30.892Z,12.83
2019-04-29T19:20:58.194Z,12.07
2019-04-29T19:23:29.528Z,9.67
2019-04-29T19:25:54.626Z,10.83
2019-04-29T19:28:29.648Z,10.27
2019-04-29T19:30:51.166Z,9.17
2019-04-29T19:33:18.423Z,13.60
2019-04-29T19:35:45.658Z,13.57
2019-04-29T19:38:14.019Z,14.20
2019-04-29T19:40:42.752Z,16.63
2019-04-29T19:43:14.501Z,21.90
2019-04-29T19:45:39.359Z,14.30
2019-04-29T19:48:06.591Z,13.70
2019-04-29T19:50:35.794Z,13.73
2019-04-29T19:53:05.039Z,13.50
2019-04-29T19:55:33.309Z,12.43
2019-04-29T19:58:01.828Z,13.53
2019-04-29T20:00:31.816Z,29.77
2019-04-29T20:02:58.962Z,38.53
2019-04-29T20:05:41.276Z,28.97
2019-04-29T20:08:09.914Z,21.17
2019-04-29T20:10:46.693Z,18.80
2019-04-29T20:13:07.909Z,16.93
2019-04-29T20:15:41.409Z,9.20
2019-04-29T20:18:39.850Z,10.57
2019-04-29T20:21:09.601Z,10.87
2019-04-29T20:23:39.440Z,12.83
2019-04-29T20:26:15.432Z,11.10
2019-04-29T20:28:36.223Z,11.23
2019-04-29T20:31:16.509Z,11.03
2019-04-29T20:33:32.950Z,11.47
2019-04-29T20:36:02.370Z,10.83
2019-04-29T20:38:29.835Z,10.40
2019-04-29T20:40:58.882Z,10.37
2019-04-29T20:43:29.627Z,12.60
2019-04-29T20:45:58.134Z,12.00
2019-04-29T20:48:25.342Z,10.97
2019-04-29T20:50:54.207Z,11.77
2019-04-29T20:53:36.016Z,10.57
2019-04-29T20:56:09.544Z,11.07
2019-04-29T20:58:32.800Z,12.37
2019-04-29T21:01:02.962Z,12.97
2019-04-29T21:03:32.140Z,12.80
2019-04-29T21:06:02.528Z,14.53
2019-04-29T21:08:26.368Z,11.10
2019-04-29T21:10:55.557Z,12.07
2019-04-29T21:13:56.116Z,13.30
2019-04-29T21:16:30.722Z,13.37
2019-04-29T21:19:08.269Z,11.03
2019-04-29T21:21:36.761Z,12.43
2019-04-29T21:24:06.506Z,13.17
2019-04-29T21:26:32.214Z,14.40
2019-04-29T21:28:59.451Z,12.90
2019-04-29T21:31:26.734Z,13.97
2019-04-29T21:33:55.341Z,15.70
2019-04-29T21:36:32.234Z,11.77
2019-04-29T21:39:17.735Z,14.60
2019-04-29T21:41:58.819Z,14.10
2019-04-29T21:44:27.801Z,18.47
2019-04-29T21:46:55.368Z,21.20
2019-04-29T21:49:23.035Z,17.43
2019-04-29T21:51:50.275Z,18.40
2019-04-29T21:54:17.491Z,22.50
2019-04-29T21:56:47.979Z,20.53
2019-04-29T21:59:15.637Z,21.37
2019-04-29T22:01:44.821Z,19.70
2019-04-29T22:04:12.379Z,17.97
2019-04-29T22:06:39.615Z,20.27
2019-04-29T22:09:08.463Z,23.33
2019-04-29T22:11:43.058Z,20.87
2019-04-29T22:14:05.588Z,18.93
2019-04-29T22:16:33.159Z,22.53
2019-04-29T22:19:00.439Z,18.83
2019-04-29T22:21:28.200Z,23.43
2019-04-29T22:23:55.527Z,20.17
2019-04-29T22:26:27.063Z,20.97
2019-04-29T22:29:01.701Z,21.07
2019-04-29T22:31:26.925Z,19.47
2019-04-29T22:33:52.735Z,20.07
2019-04-29T22:36:19.964Z,18.63
2019-04-29T22:38:48.588Z,18.20
2019-04-29T22:41:23.647Z,17.60
2019-04-29T22:43:56.618Z,20.13
2019-04-29T22:46:25.545Z,19.10
2019-04-29T22:48:52.871Z,18.87
2019-04-29T22:51:20.096Z,18.50
2019-04-29T22:53:48.353Z,20.47
2019-04-29T22:56:15.963Z,19.07
2019-04-29T22:58:43.873Z,18.80
2019-04-29T23:01:12.579Z,20.57
2019-04-29T23:03:39.863Z,19.97
2019-04-29T23:06:08.537Z,19.80
2019-04-29T23:08:38.112Z,19.77
2019-04-29T23:11:05.442Z,20.10
2019-04-29T23:13:32.865Z,19.53
2019-04-29T23:16:02.138Z,22.70
2019-04-29T23:18:41.148Z,18.67
2019-04-29T23:21:19.985Z,20.13
2019-04-29T23:23:49.898Z,19.53
2019-04-29T23:26:17.107Z,20.43
2019-04-29T23:28:45.730Z,19.57
2019-04-29T23:31:13.210Z,18.43
2019-04-29T23:33:40.436Z,20.40
2019-04-29T23:36:09.622Z,21.13
2019-04-29T23:38:38.570Z,21.10
2019-04-29T23:41:07.113Z,20.57
2019-04-29T23:43:35.522Z,21.13
2019-04-29T23:46:04.855Z,23.77
2019-04-29T23:48:39.585Z,20.43
2019-04-29T23:51:01.251Z,19.97
2019-04-29T23:53:28.481Z,21.70
2019-04-29T23:55:55.766Z,22.10
2019-04-29T23:58:41.732Z,23.40
